sensor_id;sensor_type;location;lat;lon;timestamp;P1;durP1;ratioP1;P2;durP2;ratioP2
9729;SDS011;4904;49.152;11.004;2022-11-11T00:01:21;5.50;;;4.20;;
9729;SDS011;4904;49.152;11.004;2022-11-11T00:03:53;5.37;;;4.17;;
9729;SDS011;4904;49.152;11.004;2022-11-11T00:06:34;5.88;;;4.53;;
9729;SDS011;4904;49.152;11.004;2022-11-11T00:09:17;6.93;;;4.55;;
9729;SDS011;4904;49.152;11.004;2022-11-11T00:11:48;8.38;;;4.68;;
9729;SDS011;4904;49.152;11.004;2022-11-11T00:14:15;7.13;;;5.05;;
9729;SDS011;4904;49.152;11.004;2022-11-11T00:16:42;6.80;;;4.70;;
9729;SDS011;4904;49.152;11.004;2022-11-11T00:19:27;6.77;;;4.37;;
9729;SDS011;4904;49.152;11.004;2022-11-11T00:22:17;8.53;;;5.07;;
9729;SDS011;4904;49.152;11.004;2022-11-11T00:25:17;8.70;;;4.75;;
9729;SDS011;4904;49.152;11.004;2022-11-11T00:27:46;7.47;;;4.85;;
9729;SDS011;4904;49.152;11.004;2022-11-11T00:30:13;4.97;;;4.10;;
9729;SDS011;4904;49.152;11.004;2022-11-11T00:32:40;5.22;;;4.32;;
9729;SDS011;4904;49.152;11.004;2022-11-11T00:35:07;6.90;;;4.77;;
9729;SDS011;4904;49.152;11.004;2022-11-11T00:37:54;6.60;;;4.80;;
9729;SDS011;4904;49.152;11.004;2022-11-11T00:40:20;7.28;;;4.15;;
9729;SDS011;4904;49.152;11.004;2022-11-11T00:42:47;5.40;;;4.40;;
9729;SDS011;4904;49.152;11.004;2022-11-11T00:45:14;9.70;;;4.70;;
9729;SDS011;4904;49.152;11.004;2022-11-11T00:47:41;5.23;;;4.03;;
9729;SDS011;4904;49.152;11.004;2022-11-11T00:50:27;6.70;;;4.43;;
9729;SDS011;4904;49.152;11.004;2022-11-11T00:53:14;6.53;;;4.20;;
9729;SDS011;4904;49.152;11.004;2022-11-11T00:55:41;5.60;;;3.90;;
9729;SDS011;4904;49.152;11.004;2022-11-11T00:58:09;7.90;;;4.47;;
9729;SDS011;4904;49.152;11.004;2022-11-11T01:00:36;4.70;;;4.23;;
9729;SDS011;4904;49.152;11.004;2022-11-11T01:03:03;6.90;;;4.13;;
9729;SDS011;4904;49.152;11.004;2022-11-11T01:05:30;5.27;;;4.03;;
9729;SDS011;4904;49.152;11.004;2022-11-11T01:07:57;6.68;;;3.97;;
9729;SDS011;4904;49.152;11.004;2022-11-11T01:10:26;6.77;;;3.70;;
9729;SDS011;4904;49.152;11.004;2022-11-11T01:13:16;7.72;;;4.03;;
9729;SDS011;4904;49.152;11.004;2022-11-11T01:15:45;5.60;;;4.10;;
9729;SDS011;4904;49.152;11.004;2022-11-11T01:18:16;5.47;;;3.88;;
9729;SDS011;4904;49.152;11.004;2022-11-11T01:20:44;7.57;;;4.10;;
9729;SDS011;4904;49.152;11.004;2022-11-11T01:23:12;6.27;;;3.70;;
9729;SDS011;4904;49.152;11.004;2022-11-11T01:25:41;6.57;;;3.63;;
9729;SDS011;4904;49.152;11.004;2022-11-11T01:28:30;5.30;;;4.35;;
9729;SDS011;4904;49.152;11.004;2022-11-11T01:31:27;5.63;;;3.80;;
9729;SDS011;4904;49.152;11.004;2022-11-11T01:33:54;5.38;;;3.72;;
9729;SDS011;4904;49.152;11.004;2022-11-11T01:36:27;3.53;;;3.10;;
9729;SDS011;4904;49.152;11.004;2022-11-11T01:38:56;5.13;;;3.60;;
9729;SDS011;4904;49.152;11.004;2022-11-11T01:41:27;5.47;;;3.73;;
9729;SDS011;4904;49.152;11.004;2022-11-11T01:43:59;6.73;;;4.10;;
9729;SDS011;4904;49.152;11.004;2022-11-11T01:46:27;6.97;;;3.40;;
9729;SDS011;4904;49.152;11.004;2022-11-11T01:49:01;4.70;;;3.50;;
9729;SDS011;4904;49.152;11.004;2022-11-11T01:51:45;5.43;;;3.57;;
9729;SDS011;4904;49.152;11.004;2022-11-11T01:54:19;6.00;;;3.80;;
9729;SDS011;4904;49.152;11.004;2022-11-11T01:56:55;4.10;;;3.63;;
9729;SDS011;4904;49.152;11.004;2022-11-11T01:59:27;4.83;;;3.30;;
9729;SDS011;4904;49.152;11.004;2022-11-11T02:01:56;4.50;;;3.40;;
9729;SDS011;4904;49.152;11.004;2022-11-11T02:04:23;5.13;;;3.40;;
9729;SDS011;4904;49.152;11.004;2022-11-11T02:07:12;4.20;;;3.70;;
9729;SDS011;4904;49.152;11.004;2022-11-11T02:10:03;5.87;;;4.00;;
9729;SDS011;4904;49.152;11.004;2022-11-11T02:12:35;6.33;;;3.80;;
9729;SDS011;4904;49.152;11.004;2022-11-11T02:15:19;6.63;;;3.73;;
9729;SDS011;4904;49.152;11.004;2022-11-11T02:17:56;4.60;;;3.70;;
9729;SDS011;4904;49.152;11.004;2022-11-11T02:20:24;5.20;;;4.00;;
9729;SDS011;4904;49.152;11.004;2022-11-11T02:22:55;6.20;;;3.40;;
9729;SDS011;4904;49.152;11.004;2022-11-11T02:25:28;5.00;;;3.87;;
9729;SDS011;4904;49.152;11.004;2022-11-11T02:27:58;4.75;;;3.53;;
9729;SDS011;4904;49.152;11.004;2022-11-11T02:30:28;6.70;;;3.80;;
9729;SDS011;4904;49.152;11.004;2022-11-11T02:32:55;6.77;;;3.50;;
9729;SDS011;4904;49.152;11.004;2022-11-11T02:35:23;7.30;;;3.70;;
9729;SDS011;4904;49.152;11.004;2022-11-11T02:37:54;5.53;;;3.43;;
9729;SDS011;4904;49.152;11.004;2022-11-11T02:40:23;6.43;;;3.40;;
9729;SDS011;4904;49.152;11.004;2022-11-11T02:42:56;3.83;;;3.40;;
9729;SDS011;4904;49.152;11.004;2022-11-11T02:45:22;4.10;;;3.53;;
9729;SDS011;4904;49.152;11.004;2022-11-11T02:47:49;7.40;;;3.70;;
9729;SDS011;4904;49.152;11.004;2022-11-11T02:50:16;5.50;;;3.80;;
9729;SDS011;4904;49.152;11.004;2022-11-11T02:52:43;6.57;;;3.63;;
9729;SDS011;4904;49.152;11.004;2022-11-11T02:55:10;4.60;;;3.50;;
9729;SDS011;4904;49.152;11.004;2022-11-11T02:57:39;4.07;;;3.67;;
9729;SDS011;4904;49.152;11.004;2022-11-11T03:00:06;4.57;;;3.20;;
9729;SDS011;4904;49.152;11.004;2022-11-11T03:02:34;5.30;;;3.67;;
9729;SDS011;4904;49.152;11.004;2022-11-11T03:05:02;2.80;;;2.60;;
9729;SDS011;4904;49.152;11.004;2022-11-11T03:10:51;3.50;;;3.00;;
9729;SDS011;4904;49.152;11.004;2022-11-11T03:13:21;3.93;;;3.43;;
9729;SDS011;4904;49.152;11.004;2022-11-11T03:15:48;3.33;;;2.87;;
9729;SDS011;4904;49.152;11.004;2022-11-11T03:18:27;5.33;;;3.37;;
9729;SDS011;4904;49.152;11.004;2022-11-11T03:20:53;4.17;;;2.93;;
9729;SDS011;4904;49.152;11.004;2022-11-11T03:23:33;6.70;;;3.70;;
9729;SDS011;4904;49.152;11.004;2022-11-11T03:26:20;3.43;;;3.03;;
9729;SDS011;4904;49.152;11.004;2022-11-11T03:31:50;3.80;;;2.70;;
9729;SDS011;4904;49.152;11.004;2022-11-11T03:34:17;3.80;;;3.40;;
9729;SDS011;4904;49.152;11.004;2022-11-11T03:36:44;3.90;;;2.90;;
9729;SDS011;4904;49.152;11.004;2022-11-11T03:39:31;5.27;;;3.27;;
9729;SDS011;4904;49.152;11.004;2022-11-11T03:42:12;3.97;;;3.03;;
9729;SDS011;4904;49.152;11.004;2022-11-11T03:45:07;4.03;;;2.97;;
9729;SDS011;4904;49.152;11.004;2022-11-11T03:47:36;3.58;;;3.28;;
9729;SDS011;4904;49.152;11.004;2022-11-11T03:50:03;5.00;;;3.10;;
9729;SDS011;4904;49.152;11.004;2022-11-11T03:52:55;3.70;;;3.10;;
9729;SDS011;4904;49.152;11.004;2022-11-11T03:55:22;5.67;;;3.37;;
9729;SDS011;4904;49.152;11.004;2022-11-11T03:57:49;7.33;;;4.40;;
9729;SDS011;4904;49.152;11.004;2022-11-11T04:00:24;5.53;;;3.67;;
9729;SDS011;4904;49.152;11.004;2022-11-11T04:03:01;3.63;;;3.30;;
9729;SDS011;4904;49.152;11.004;2022-11-11T04:05:46;6.13;;;3.73;;
9729;SDS011;4904;49.152;11.004;2022-11-11T04:08:42;5.40;;;3.50;;
9729;SDS011;4904;49.152;11.004;2022-11-11T04:11:27;6.00;;;3.50;;
9729;SDS011;4904;49.152;11.004;2022-11-11T04:13:58;8.37;;;3.17;;
9729;SDS011;4904;49.152;11.004;2022-11-11T04:16:46;3.87;;;3.30;;
9729;SDS011;4904;49.152;11.004;2022-11-11T04:19:14;4.77;;;3.10;;
9729;SDS011;4904;49.152;11.004;2022-11-11T04:21:59;6.30;;;3.20;;
9729;SDS011;4904;49.152;11.004;2022-11-11T04:24:25;5.17;;;3.00;;
9729;SDS011;4904;49.152;11.004;2022-11-11T04:27:10;4.17;;;3.23;;
9729;SDS011;4904;49.152;11.004;2022-11-11T04:29:38;3.77;;;3.03;;
9729;SDS011;4904;49.152;11.004;2022-11-11T04:32:06;3.97;;;3.27;;
9729;SDS011;4904;49.152;11.004;2022-11-11T04:37:43;3.50;;;3.20;;
9729;SDS011;4904;49.152;11.004;2022-11-11T04:40:13;7.77;;;3.70;;
9729;SDS011;4904;49.152;11.004;2022-11-11T04:42:58;3.60;;;3.10;;
9729;SDS011;4904;49.152;11.004;2022-11-11T04:45:25;5.70;;;3.20;;
9729;SDS011;4904;49.152;11.004;2022-11-11T04:47:52;5.23;;;3.00;;
9729;SDS011;4904;49.152;11.004;2022-11-11T04:50:21;8.57;;;3.30;;
9729;SDS011;4904;49.152;11.004;2022-11-11T04:52:50;4.30;;;3.03;;
9729;SDS011;4904;49.152;11.004;2022-11-11T04:55:19;3.23;;;2.67;;
9729;SDS011;4904;49.152;11.004;2022-11-11T04:58:10;3.30;;;3.00;;
9729;SDS011;4904;49.152;11.004;2022-11-11T05:00:49;4.27;;;2.57;;
9729;SDS011;4904;49.152;11.004;2022-11-11T05:03:18;3.73;;;2.97;;
9729;SDS011;4904;49.152;11.004;2022-11-11T05:05:48;5.43;;;2.80;;
9729;SDS011;4904;49.152;11.004;2022-11-11T05:08:34;5.40;;;2.70;;
9729;SDS011;4904;49.152;11.004;2022-11-11T05:11:22;3.20;;;2.90;;
9729;SDS011;4904;49.152;11.004;2022-11-11T05:14:26;3.90;;;3.20;;
9729;SDS011;4904;49.152;11.004;2022-11-11T05:17:23;3.30;;;2.90;;
9729;SDS011;4904;49.152;11.004;2022-11-11T05:20:09;4.70;;;3.03;;
9729;SDS011;4904;49.152;11.004;2022-11-11T05:23:04;4.30;;;3.00;;
9729;SDS011;4904;49.152;11.004;2022-11-11T05:26:10;5.20;;;2.87;;
9729;SDS011;4904;49.152;11.004;2022-11-11T05:28:37;4.63;;;3.03;;
9729;SDS011;4904;49.152;11.004;2022-11-11T05:31:04;4.17;;;3.20;;
9729;SDS011;4904;49.152;11.004;2022-11-11T05:33:33;3.43;;;2.93;;
9729;SDS011;4904;49.152;11.004;2022-11-11T05:36:00;4.73;;;2.80;;
9729;SDS011;4904;49.152;11.004;2022-11-11T05:38:28;5.47;;;3.00;;
9729;SDS011;4904;49.152;11.004;2022-11-11T05:40:57;4.10;;;2.90;;
9729;SDS011;4904;49.152;11.004;2022-11-11T05:43:29;4.90;;;2.93;;
9729;SDS011;4904;49.152;11.004;2022-11-11T05:45:58;4.03;;;3.07;;
9729;SDS011;4904;49.152;11.004;2022-11-11T05:48:25;5.93;;;2.80;;
9729;SDS011;4904;49.152;11.004;2022-11-11T05:51:06;6.00;;;3.23;;
9729;SDS011;4904;49.152;11.004;2022-11-11T05:53:53;5.40;;;2.87;;
9729;SDS011;4904;49.152;11.004;2022-11-11T05:56:21;3.70;;;2.70;;
9729;SDS011;4904;49.152;11.004;2022-11-11T05:58:48;5.20;;;3.37;;
9729;SDS011;4904;49.152;11.004;2022-11-11T06:01:15;7.20;;;5.20;;
9729;SDS011;4904;49.152;11.004;2022-11-11T06:03:42;4.33;;;3.00;;
9729;SDS011;4904;49.152;11.004;2022-11-11T06:06:09;4.17;;;3.23;;
9729;SDS011;4904;49.152;11.004;2022-11-11T06:08:36;7.57;;;3.40;;
9729;SDS011;4904;49.152;11.004;2022-11-11T06:11:04;6.30;;;3.37;;
9729;SDS011;4904;49.152;11.004;2022-11-11T06:13:31;7.13;;;3.60;;
9729;SDS011;4904;49.152;11.004;2022-11-11T06:15:58;9.27;;;7.23;;
9729;SDS011;4904;49.152;11.004;2022-11-11T06:18:25;9.97;;;6.47;;
9729;SDS011;4904;49.152;11.004;2022-11-11T06:20:53;7.27;;;5.37;;
9729;SDS011;4904;49.152;11.004;2022-11-11T06:23:23;7.80;;;5.73;;
9729;SDS011;4904;49.152;11.004;2022-11-11T06:25:52;11.60;;;6.40;;
9729;SDS011;4904;49.152;11.004;2022-11-11T06:28:40;12.07;;;5.97;;
9729;SDS011;4904;49.152;11.004;2022-11-11T06:31:14;6.50;;;4.93;;
9729;SDS011;4904;49.152;11.004;2022-11-11T06:33:41;11.40;;;5.73;;
9729;SDS011;4904;49.152;11.004;2022-11-11T06:36:10;10.93;;;7.43;;
9729;SDS011;4904;49.152;11.004;2022-11-11T06:38:42;12.37;;;7.83;;
9729;SDS011;4904;49.152;11.004;2022-11-11T06:41:12;8.03;;;5.60;;
9729;SDS011;4904;49.152;11.004;2022-11-11T06:43:44;8.77;;;4.93;;
9729;SDS011;4904;49.152;11.004;2022-11-11T06:46:12;5.47;;;4.37;;
9729;SDS011;4904;49.152;11.004;2022-11-11T06:48:47;9.30;;;4.77;;
9729;SDS011;4904;49.152;11.004;2022-11-11T06:52:11;7.37;;;4.80;;
9729;SDS011;4904;49.152;11.004;2022-11-11T06:55:01;41.40;;;13.23;;
9729;SDS011;4904;49.152;11.004;2022-11-11T06:57:28;33.73;;;11.10;;
9729;SDS011;4904;49.152;11.004;2022-11-11T06:59:57;43.77;;;7.90;;
9729;SDS011;4904;49.152;11.004;2022-11-11T07:02:23;27.93;;;6.93;;
9729;SDS011;4904;49.152;11.004;2022-11-11T07:04:50;43.87;;;7.63;;
9729;SDS011;4904;49.152;11.004;2022-11-11T07:07:17;30.93;;;6.60;;
9729;SDS011;4904;49.152;11.004;2022-11-11T07:09:44;14.43;;;7.37;;
9729;SDS011;4904;49.152;11.004;2022-11-11T07:12:11;23.30;;;7.07;;
9729;SDS011;4904;49.152;11.004;2022-11-11T07:14:38;22.77;;;6.93;;
9729;SDS011;4904;49.152;11.004;2022-11-11T07:17:09;51.47;;;6.47;;
9729;SDS011;4904;49.152;11.004;2022-11-11T07:19:36;24.43;;;5.30;;
9729;SDS011;4904;49.152;11.004;2022-11-11T07:22:03;30.17;;;6.37;;
9729;SDS011;4904;49.152;11.004;2022-11-11T07:24:30;33.93;;;7.20;;
9729;SDS011;4904;49.152;11.004;2022-11-11T07:27:23;23.23;;;6.40;;
9729;SDS011;4904;49.152;11.004;2022-11-11T07:29:51;23.93;;;6.70;;
9729;SDS011;4904;49.152;11.004;2022-11-11T07:32:25;34.70;;;6.87;;
9729;SDS011;4904;49.152;11.004;2022-11-11T07:34:53;22.30;;;6.27;;
9729;SDS011;4904;49.152;11.004;2022-11-11T07:37:20;15.33;;;6.30;;
9729;SDS011;4904;49.152;11.004;2022-11-11T07:39:52;8.20;;;5.77;;
9729;SDS011;4904;49.152;11.004;2022-11-11T07:42:20;11.60;;;5.90;;
9729;SDS011;4904;49.152;11.004;2022-11-11T07:44:47;7.03;;;5.43;;
9729;SDS011;4904;49.152;11.004;2022-11-11T07:47:14;7.57;;;5.17;;
9729;SDS011;4904;49.152;11.004;2022-11-11T07:49:48;8.53;;;5.13;;
9729;SDS011;4904;49.152;11.004;2022-11-11T07:52:19;7.00;;;5.37;;
9729;SDS011;4904;49.152;11.004;2022-11-11T07:54:59;9.90;;;6.17;;
9729;SDS011;4904;49.152;11.004;2022-11-11T07:57:51;6.50;;;5.47;;
9729;SDS011;4904;49.152;11.004;2022-11-11T08:00:18;8.30;;;5.60;;
9729;SDS011;4904;49.152;11.004;2022-11-11T08:02:59;10.73;;;7.67;;
9729;SDS011;4904;49.152;11.004;2022-11-11T08:05:28;9.40;;;7.40;;
9729;SDS011;4904;49.152;11.004;2022-11-11T08:07:55;11.90;;;7.93;;
9729;SDS011;4904;49.152;11.004;2022-11-11T08:10:27;10.68;;;7.63;;
9729;SDS011;4904;49.152;11.004;2022-11-11T08:13:03;10.77;;;7.63;;
9729;SDS011;4904;49.152;11.004;2022-11-11T08:15:48;11.90;;;7.37;;
9729;SDS011;4904;49.152;11.004;2022-11-11T08:18:16;10.70;;;7.50;;
9729;SDS011;4904;49.152;11.004;2022-11-11T08:20:45;9.15;;;7.35;;
9729;SDS011;4904;49.152;11.004;2022-11-11T08:23:16;8.90;;;7.97;;
9729;SDS011;4904;49.152;11.004;2022-11-11T08:25:56;10.73;;;8.68;;
9729;SDS011;4904;49.152;11.004;2022-11-11T08:28:28;9.98;;;8.48;;
9729;SDS011;4904;49.152;11.004;2022-11-11T08:30:57;9.50;;;8.05;;
9729;SDS011;4904;49.152;11.004;2022-11-11T08:33:25;9.70;;;8.05;;
9729;SDS011;4904;49.152;11.004;2022-11-11T08:35:54;10.68;;;8.38;;
9729;SDS011;4904;49.152;11.004;2022-11-11T08:38:27;8.00;;;7.20;;
9729;SDS011;4904;49.152;11.004;2022-11-11T08:40:57;9.88;;;8.10;;
9729;SDS011;4904;49.152;11.004;2022-11-11T08:43:25;8.77;;;7.15;;
9729;SDS011;4904;49.152;11.004;2022-11-11T08:45:56;8.60;;;7.03;;
9729;SDS011;4904;49.152;11.004;2022-11-11T08:48:24;8.85;;;6.93;;
9729;SDS011;4904;49.152;11.004;2022-11-11T08:50:51;7.50;;;6.68;;
9729;SDS011;4904;49.152;11.004;2022-11-11T08:53:20;7.85;;;7.10;;
9729;SDS011;4904;49.152;11.004;2022-11-11T08:55:47;8.05;;;6.72;;
9729;SDS011;4904;49.152;11.004;2022-11-11T08:58:14;7.35;;;6.43;;
9729;SDS011;4904;49.152;11.004;2022-11-11T09:00:41;6.90;;;6.20;;
9729;SDS011;4904;49.152;11.004;2022-11-11T09:03:09;7.75;;;6.50;;
9729;SDS011;4904;49.152;11.004;2022-11-11T09:05:37;7.70;;;6.90;;
9729;SDS011;4904;49.152;11.004;2022-11-11T09:08:06;8.27;;;6.78;;
9729;SDS011;4904;49.152;11.004;2022-11-11T09:10:34;6.97;;;6.25;;
9729;SDS011;4904;49.152;11.004;2022-11-11T09:13:02;9.02;;;6.55;;
9729;SDS011;4904;49.152;11.004;2022-11-11T09:15:30;7.55;;;6.40;;
9729;SDS011;4904;49.152;11.004;2022-11-11T09:17:58;7.68;;;6.32;;
9729;SDS011;4904;49.152;11.004;2022-11-11T09:20:27;8.40;;;6.85;;
9729;SDS011;4904;49.152;11.004;2022-11-11T09:22:54;8.98;;;6.95;;
9729;SDS011;4904;49.152;11.004;2022-11-11T09:25:26;8.43;;;6.90;;
9729;SDS011;4904;49.152;11.004;2022-11-11T09:27:54;9.52;;;6.55;;
9729;SDS011;4904;49.152;11.004;2022-11-11T09:30:22;8.07;;;5.82;;
9729;SDS011;4904;49.152;11.004;2022-11-11T09:32:51;7.32;;;6.53;;
9729;SDS011;4904;49.152;11.004;2022-11-11T09:35:19;7.72;;;6.50;;
9729;SDS011;4904;49.152;11.004;2022-11-11T09:37:53;7.88;;;5.75;;
9729;SDS011;4904;49.152;11.004;2022-11-11T09:40:21;6.88;;;6.25;;
9729;SDS011;4904;49.152;11.004;2022-11-11T09:42:55;12.10;;;6.78;;
9729;SDS011;4904;49.152;11.004;2022-11-11T09:45:33;10.80;;;6.60;;
9729;SDS011;4904;49.152;11.004;2022-11-11T09:48:20;7.45;;;5.95;;
9729;SDS011;4904;49.152;11.004;2022-11-11T09:50:58;6.57;;;5.82;;
9729;SDS011;4904;49.152;11.004;2022-11-11T09:53:29;8.65;;;6.82;;
9729;SDS011;4904;49.152;11.004;2022-11-11T09:56:04;6.65;;;6.05;;
9729;SDS011;4904;49.152;11.004;2022-11-11T09:58:36;8.07;;;6.00;;
9729;SDS011;4904;49.152;11.004;2022-11-11T10:01:07;6.55;;;5.88;;
9729;SDS011;4904;49.152;11.004;2022-11-11T10:03:39;7.13;;;6.38;;
9729;SDS011;4904;49.152;11.004;2022-11-11T10:06:18;8.10;;;5.88;;
9729;SDS011;4904;49.152;11.004;2022-11-11T10:08:58;7.35;;;5.72;;
9729;SDS011;4904;49.152;11.004;2022-11-11T10:11:41;9.25;;;6.53;;
9729;SDS011;4904;49.152;11.004;2022-11-11T10:14:15;7.10;;;5.85;;
9729;SDS011;4904;49.152;11.004;2022-11-11T10:16:46;5.43;;;4.93;;
9729;SDS011;4904;49.152;11.004;2022-11-11T10:19:26;7.35;;;5.80;;
9729;SDS011;4904;49.152;11.004;2022-11-11T10:21:56;6.93;;;5.05;;
9729;SDS011;4904;49.152;11.004;2022-11-11T10:24:27;6.95;;;6.25;;
9729;SDS011;4904;49.152;11.004;2022-11-11T10:26:58;8.68;;;5.50;;
9729;SDS011;4904;49.152;11.004;2022-11-11T10:29:34;6.15;;;5.03;;
9729;SDS011;4904;49.152;11.004;2022-11-11T10:32:08;5.78;;;4.50;;
9729;SDS011;4904;49.152;11.004;2022-11-11T10:34:41;7.28;;;5.40;;
9729;SDS011;4904;49.152;11.004;2022-11-11T10:37:14;6.25;;;5.13;;
9729;SDS011;4904;49.152;11.004;2022-11-11T10:39:47;7.10;;;5.95;;
9729;SDS011;4904;49.152;11.004;2022-11-11T10:42:35;8.93;;;5.43;;
9729;SDS011;4904;49.152;11.004;2022-11-11T10:45:07;8.60;;;5.40;;
9729;SDS011;4904;49.152;11.004;2022-11-11T10:47:43;5.50;;;4.97;;
9729;SDS011;4904;49.152;11.004;2022-11-11T10:50:17;8.48;;;4.82;;
9729;SDS011;4904;49.152;11.004;2022-11-11T10:52:47;6.97;;;4.60;;
9729;SDS011;4904;49.152;11.004;2022-11-11T10:55:23;6.28;;;5.00;;
9729;SDS011;4904;49.152;11.004;2022-11-11T10:57:56;6.43;;;4.05;;
9729;SDS011;4904;49.152;11.004;2022-11-11T11:00:28;4.97;;;4.07;;
9729;SDS011;4904;49.152;11.004;2022-11-11T11:03:03;5.80;;;4.32;;
9729;SDS011;4904;49.152;11.004;2022-11-11T11:05:36;6.35;;;4.25;;
9729;SDS011;4904;49.152;11.004;2022-11-11T11:08:11;5.25;;;4.13;;
9729;SDS011;4904;49.152;11.004;2022-11-11T11:10:42;5.40;;;4.28;;
9729;SDS011;4904;49.152;11.004;2022-11-11T11:13:15;4.25;;;3.88;;
9729;SDS011;4904;49.152;11.004;2022-11-11T11:15:48;6.25;;;4.03;;
9729;SDS011;4904;49.152;11.004;2022-11-11T11:22:14;4.90;;;4.50;;
9729;SDS011;4904;49.152;11.004;2022-11-11T11:24:43;4.72;;;4.32;;
9729;SDS011;4904;49.152;11.004;2022-11-11T11:27:24;6.00;;;5.40;;
9729;SDS011;4904;49.152;11.004;2022-11-11T15:28:23;4.40;;;3.35;;
9729;SDS011;4904;49.152;11.004;2022-11-11T15:31:07;4.00;;;3.65;;
9729;SDS011;4904;49.152;11.004;2022-11-11T15:33:45;4.72;;;3.83;;
9729;SDS011;4904;49.152;11.004;2022-11-11T15:36:23;6.60;;;3.92;;
9729;SDS011;4904;49.152;11.004;2022-11-11T15:38:58;9.80;;;4.18;;
9729;SDS011;4904;49.152;11.004;2022-11-11T15:41:31;8.07;;;3.55;;
9729;SDS011;4904;49.152;11.004;2022-11-11T15:44:03;5.60;;;3.67;;
9729;SDS011;4904;49.152;11.004;2022-11-11T16:05:03;6.88;;;4.03;;
9729;SDS011;4904;49.152;11.004;2022-11-11T16:07:38;5.25;;;3.58;;
9729;SDS011;4904;49.152;11.004;2022-11-11T16:10:09;4.97;;;3.70;;
9729;SDS011;4904;49.152;11.004;2022-11-11T16:12:42;4.65;;;3.90;;
9729;SDS011;4904;49.152;11.004;2022-11-11T16:15:17;10.85;;;5.05;;
9729;SDS011;4904;49.152;11.004;2022-11-11T16:17:47;7.72;;;4.88;;
9729;SDS011;4904;49.152;11.004;2022-11-11T16:20:19;9.00;;;5.40;;
9729;SDS011;4904;49.152;11.004;2022-11-11T16:22:51;6.53;;;4.78;;
9729;SDS011;4904;49.152;11.004;2022-11-11T16:25:29;5.82;;;4.15;;
9729;SDS011;4904;49.152;11.004;2022-11-11T16:28:04;5.25;;;4.20;;
9729;SDS011;4904;49.152;11.004;2022-11-11T16:30:34;6.40;;;4.40;;
9729;SDS011;4904;49.152;11.004;2022-11-11T16:33:17;6.63;;;4.60;;
9729;SDS011;4904;49.152;11.004;2022-11-11T16:36:09;7.75;;;4.78;;
9729;SDS011;4904;49.152;11.004;2022-11-11T16:38:42;13.73;;;7.93;;
9729;SDS011;4904;49.152;11.004;2022-11-11T16:41:23;11.18;;;8.98;;
9729;SDS011;4904;49.152;11.004;2022-11-11T16:43:55;9.23;;;7.10;;
9729;SDS011;4904;49.152;11.004;2022-11-11T16:48:54;10.07;;;7.78;;
9729;SDS011;4904;49.152;11.004;2022-11-11T16:51:34;13.60;;;7.72;;
9729;SDS011;4904;49.152;11.004;2022-11-11T16:54:08;14.00;;;6.85;;
9729;SDS011;4904;49.152;11.004;2022-11-11T16:56:40;9.25;;;5.35;;
9729;SDS011;4904;49.152;11.004;2022-11-11T17:06:51;6.95;;;4.85;;
9729;SDS011;4904;49.152;11.004;2022-11-11T17:09:28;6.00;;;4.82;;
9729;SDS011;4904;49.152;11.004;2022-11-11T17:12:03;7.38;;;4.82;;
9729;SDS011;4904;49.152;11.004;2022-11-11T17:35:26;5.97;;;5.38;;
9729;SDS011;4904;49.152;11.004;2022-11-11T17:37:56;6.05;;;5.13;;
9729;SDS011;4904;49.152;11.004;2022-11-11T17:52:12;7.20;;;5.32;;
9729;SDS011;4904;49.152;11.004;2022-11-11T17:54:38;5.90;;;5.40;;
9729;SDS011;4904;49.152;11.004;2022-11-11T17:57:05;5.72;;;5.10;;
9729;SDS011;4904;49.152;11.004;2022-11-11T17:59:32;6.38;;;5.78;;
9729;SDS011;4904;49.152;11.004;2022-11-11T18:01:59;6.57;;;5.07;;
9729;SDS011;4904;49.152;11.004;2022-11-11T18:04:27;7.35;;;6.05;;
9729;SDS011;4904;49.152;11.004;2022-11-11T18:06:54;6.97;;;6.28;;
9729;SDS011;4904;49.152;11.004;2022-11-11T18:09:22;7.45;;;5.63;;
9729;SDS011;4904;49.152;11.004;2022-11-11T18:11:49;7.00;;;6.30;;
9729;SDS011;4904;49.152;11.004;2022-11-11T18:14:15;7.28;;;6.63;;
9729;SDS011;4904;49.152;11.004;2022-11-11T18:16:42;7.40;;;6.65;;
9729;SDS011;4904;49.152;11.004;2022-11-11T18:19:09;9.38;;;6.40;;
9729;SDS011;4904;49.152;11.004;2022-11-11T18:21:36;8.43;;;6.88;;
9729;SDS011;4904;49.152;11.004;2022-11-11T18:24:06;7.68;;;6.88;;
9729;SDS011;4904;49.152;11.004;2022-11-11T18:26:35;7.82;;;7.03;;
9729;SDS011;4904;49.152;11.004;2022-11-11T18:29:03;7.30;;;6.60;;
9729;SDS011;4904;49.152;11.004;2022-11-11T18:31:32;10.15;;;7.72;;
9729;SDS011;4904;49.152;11.004;2022-11-11T18:33:59;12.73;;;8.73;;
9729;SDS011;4904;49.152;11.004;2022-11-11T18:36:26;15.95;;;13.18;;
9729;SDS011;4904;49.152;11.004;2022-11-11T18:38:53;10.93;;;8.68;;
9729;SDS011;4904;49.152;11.004;2022-11-11T18:41:23;8.25;;;6.78;;
9729;SDS011;4904;49.152;11.004;2022-11-11T18:43:51;8.25;;;6.75;;
9729;SDS011;4904;49.152;11.004;2022-11-11T18:46:20;8.35;;;7.13;;
9729;SDS011;4904;49.152;11.004;2022-11-11T18:48:51;7.90;;;7.05;;
9729;SDS011;4904;49.152;11.004;2022-11-11T18:51:19;9.15;;;6.72;;
9729;SDS011;4904;49.152;11.004;2022-11-11T18:53:47;8.55;;;7.80;;
9729;SDS011;4904;49.152;11.004;2022-11-11T18:56:15;14.90;;;13.27;;
9729;SDS011;4904;49.152;11.004;2022-11-11T18:58:46;12.23;;;10.75;;
9729;SDS011;4904;49.152;11.004;2022-11-11T19:01:15;11.07;;;9.95;;
9729;SDS011;4904;49.152;11.004;2022-11-11T19:03:47;11.60;;;9.63;;
9729;SDS011;4904;49.152;11.004;2022-11-11T19:06:15;9.98;;;8.98;;
9729;SDS011;4904;49.152;11.004;2022-11-11T19:08:44;8.75;;;7.85;;
9729;SDS011;4904;49.152;11.004;2022-11-11T19:11:11;8.02;;;7.25;;
9729;SDS011;4904;49.152;11.004;2022-11-11T19:13:38;9.35;;;8.35;;
9729;SDS011;4904;49.152;11.004;2022-11-11T19:16:06;9.00;;;8.10;;
9729;SDS011;4904;49.152;11.004;2022-11-11T19:18:36;9.65;;;8.65;;
9729;SDS011;4904;49.152;11.004;2022-11-11T19:21:06;10.95;;;8.68;;
9729;SDS011;4904;49.152;11.004;2022-11-11T19:23:38;10.30;;;8.18;;
9729;SDS011;4904;49.152;11.004;2022-11-11T19:26:06;9.68;;;8.00;;
9729;SDS011;4904;49.152;11.004;2022-11-11T19:28:34;9.20;;;7.90;;
9729;SDS011;4904;49.152;11.004;2022-11-11T19:31:01;10.38;;;8.73;;
9729;SDS011;4904;49.152;11.004;2022-11-11T19:33:30;13.98;;;12.38;;
9729;SDS011;4904;49.152;11.004;2022-11-11T19:36:00;17.70;;;14.45;;
9729;SDS011;4904;49.152;11.004;2022-11-11T19:38:28;34.28;;;24.30;;
9729;SDS011;4904;49.152;11.004;2022-11-11T19:40:56;38.38;;;25.90;;
9729;SDS011;4904;49.152;11.004;2022-11-11T19:43:23;34.67;;;23.95;;
9729;SDS011;4904;49.152;11.004;2022-11-11T19:45:50;27.25;;;20.98;;
9729;SDS011;4904;49.152;11.004;2022-11-11T19:48:17;28.75;;;20.75;;
9729;SDS011;4904;49.152;11.004;2022-11-11T19:50:44;21.20;;;16.23;;
9729;SDS011;4904;49.152;11.004;2022-11-11T19:53:12;15.27;;;13.05;;
9729;SDS011;4904;49.152;11.004;2022-11-11T19:55:41;12.23;;;10.55;;
9729;SDS011;4904;49.152;11.004;2022-11-11T19:58:08;10.55;;;9.13;;
9729;SDS011;4904;49.152;11.004;2022-11-11T20:00:35;10.32;;;9.23;;
9729;SDS011;4904;49.152;11.004;2022-11-11T20:03:02;9.52;;;8.55;;
9729;SDS011;4904;49.152;11.004;2022-11-11T20:05:29;12.02;;;9.20;;
9729;SDS011;4904;49.152;11.004;2022-11-11T20:08:00;10.70;;;9.60;;
9729;SDS011;4904;49.152;11.004;2022-11-11T20:10:28;10.32;;;9.18;;
9729;SDS011;4904;49.152;11.004;2022-11-11T20:13:01;10.05;;;9.05;;
9729;SDS011;4904;49.152;11.004;2022-11-11T20:15:27;10.95;;;9.32;;
9729;SDS011;4904;49.152;11.004;2022-11-11T20:17:54;9.63;;;8.63;;
9729;SDS011;4904;49.152;11.004;2022-11-11T20:20:21;8.68;;;7.60;;
9729;SDS011;4904;49.152;11.004;2022-11-11T20:22:48;9.27;;;8.38;;
9729;SDS011;4904;49.152;11.004;2022-11-11T20:25:15;9.85;;;8.10;;
9729;SDS011;4904;49.152;11.004;2022-11-11T20:27:44;8.57;;;7.68;;
9729;SDS011;4904;49.152;11.004;2022-11-11T20:30:11;9.07;;;8.18;;
9729;SDS011;4904;49.152;11.004;2022-11-11T20:32:39;9.48;;;8.48;;
9729;SDS011;4904;49.152;11.004;2022-11-11T20:35:06;11.77;;;8.70;;
9729;SDS011;4904;49.152;11.004;2022-11-11T20:37:33;9.20;;;7.35;;
9729;SDS011;4904;49.152;11.004;2022-11-11T20:40:00;9.00;;;8.10;;
9729;SDS011;4904;49.152;11.004;2022-11-11T20:42:27;7.90;;;7.18;;